sensor_id;sensor_type;location;lat;lon;timestamp;pressure;altitude;pressure_sealevel;temperature;humidity
10618;BME280;5356;43.526;26.534;2023-05-03T00:02:12;99718.72;;;11.60;79.21
10618;BME280;5356;43.526;26.534;2023-05-03T00:04:38;99713.94;;;11.68;79.34
10618;BME280;5356;43.526;26.534;2023-05-03T00:07:04;99718.03;;;11.71;78.88
10618;BME280;5356;43.526;26.534;2023-05-03T00:09:30;99721.31;;;11.73;78.70
10618;BME280;5356;43.526;26.534;2023-05-03T00:11:55;99717.84;;;11.73;78.55
10618;BME280;5356;43.526;26.534;2023-05-03T00:14:20;99716.47;;;11.63;79.20
10618;BME280;5356;43.526;26.534;2023-05-03T00:16:46;99708.72;;;11.49;80.05
10618;BME280;5356;43.526;26.534;2023-05-03T00:19:11;99707.31;;;11.39;80.96
10618;BME280;5356;43.526;26.534;2023-05-03T00:21:37;99710.25;;;11.18;82.72
10618;BME280;5356;43.526;26.534;2023-05-03T00:24:03;99697.00;;;11.05;84.42
10618;BME280;5356;43.526;26.534;2023-05-03T00:26:29;99707.47;;;10.99;85.49
10618;BME280;5356;43.526;26.534;2023-05-03T00:28:54;99713.03;;;10.91;86.84
10618;BME280;5356;43.526;26.534;2023-05-03T00:31:20;99710.94;;;11.00;87.02
10618;BME280;5356;43.526;26.534;2023-05-03T00:33:45;99719.91;;;11.12;87.12
10618;BME280;5356;43.526;26.534;2023-05-03T00:36:12;99721.34;;;11.21;86.75
10618;BME280;5356;43.526;26.534;2023-05-03T00:38:39;99731.84;;;11.10;87.88
10618;BME280;5356;43.526;26.534;2023-05-03T00:41:05;99732.47;;;11.05;88.18
10618;BME280;5356;43.526;26.534;2023-05-03T00:43:31;99728.94;;;11.18;87.72
10618;BME280;5356;43.526;26.534;2023-05-03T00:45:59;99722.94;;;11.29;87.82
10618;BME280;5356;43.526;26.534;2023-05-03T00:48:25;99722.34;;;11.20;88.17
10618;BME280;5356;43.526;26.534;2023-05-03T00:50:51;99722.38;;;11.14;88.96
10618;BME280;5356;43.526;26.534;2023-05-03T00:53:20;99717.88;;;11.14;89.57
10618;BME280;5356;43.526;26.534;2023-05-03T00:55:45;99711.91;;;11.19;89.88
10618;BME280;5356;43.526;26.534;2023-05-03T00:58:11;99719.88;;;11.26;89.70
10618;BME280;5356;43.526;26.534;2023-05-03T01:00:37;99707.31;;;11.39;89.38
10618;BME280;5356;43.526;26.534;2023-05-03T01:03:02;99715.09;;;11.48;89.15
10618;BME280;5356;43.526;26.534;2023-05-03T01:05:32;99710.31;;;11.56;89.26
10618;BME280;5356;43.526;26.534;2023-05-03T01:08:10;99711.94;;;11.64;88.95
10618;BME280;5356;43.526;26.534;2023-05-03T01:13:16;99717.91;;;11.59;89.06
10618;BME280;5356;43.526;26.534;2023-05-03T01:18:40;99712.41;;;11.48;89.58
10618;BME280;5356;43.526;26.534;2023-05-03T01:21:09;99705.19;;;11.55;89.61
10618;BME280;5356;43.526;26.534;2023-05-03T01:23:56;99701.94;;;11.53;90.28
10618;BME280;5356;43.526;26.534;2023-05-03T01:26:25;99704.59;;;11.53;90.29
10618;BME280;5356;43.526;26.534;2023-05-03T01:28:52;99695.34;;;11.55;90.10
10618;BME280;5356;43.526;26.534;2023-05-03T01:36:45;99692.50;;;11.43;90.90
10618;BME280;5356;43.526;26.534;2023-05-03T01:42:05;99687.88;;;11.26;92.71
10618;BME280;5356;43.526;26.534;2023-05-03T01:44:31;99699.00;;;11.16;93.13
10618;BME280;5356;43.526;26.534;2023-05-03T01:46:57;99699.22;;;11.14;93.72
10618;BME280;5356;43.526;26.534;2023-05-03T01:49:23;99694.91;;;11.07;94.21
10618;BME280;5356;43.526;26.534;2023-05-03T01:51:48;99696.16;;;11.11;95.53
10618;BME280;5356;43.526;26.534;2023-05-03T01:54:14;99688.97;;;11.11;95.71
10618;BME280;5356;43.526;26.534;2023-05-03T01:56:40;99686.50;;;11.16;95.20
10618;BME280;5356;43.526;26.534;2023-05-03T01:59:06;99691.00;;;11.16;95.84
10618;BME280;5356;43.526;26.534;2023-05-03T02:01:31;99677.91;;;11.01;96.87
10618;BME280;5356;43.526;26.534;2023-05-03T02:03:57;99675.94;;;10.83;98.13
10618;BME280;5356;43.526;26.534;2023-05-03T02:06:23;99683.53;;;10.79;98.82
10618;BME280;5356;43.526;26.534;2023-05-03T02:08:50;99667.56;;;10.73;99.30
10618;BME280;5356;43.526;26.534;2023-05-03T02:11:16;99672.47;;;10.69;100.00
10618;BME280;5356;43.526;26.534;2023-05-03T02:13:41;99678.03;;;10.68;100.00
10618;BME280;5356;43.526;26.534;2023-05-03T02:16:06;99682.72;;;10.72;100.00
10618;BME280;5356;43.526;26.534;2023-05-03T02:18:33;99675.13;;;10.76;100.00
10618;BME280;5356;43.526;26.534;2023-05-03T02:20:59;99672.91;;;10.73;100.00
10618;BME280;5356;43.526;26.534;2023-05-03T02:23:25;99681.09;;;10.71;100.00
10618;BME280;5356;43.526;26.534;2023-05-03T02:25:50;99676.78;;;10.70;100.00
10618;BME280;5356;43.526;26.534;2023-05-03T02:28:16;99669.00;;;10.69;100.00
10618;BME280;5356;43.526;26.534;2023-05-03T02:30:42;99665.94;;;10.65;100.00
10618;BME280;5356;43.526;26.534;2023-05-03T02:33:08;99664.72;;;10.54;100.00
10618;BME280;5356;43.526;26.534;2023-05-03T02:35:33;99661.84;;;10.49;100.00
10618;BME280;5356;43.526;26.534;2023-05-03T02:37:58;99660.22;;;10.48;100.00
10618;BME280;5356;43.526;26.534;2023-05-03T02:40:24;99659.81;;;10.45;100.00
10618;BME280;5356;43.526;26.534;2023-05-03T02:42:50;99651.81;;;10.38;100.00
10618;BME280;5356;43.526;26.534;2023-05-03T02:45:16;99652.22;;;10.35;100.00
10618;BME280;5356;43.526;26.534;2023-05-03T02:47:41;99661.47;;;10.32;100.00
10618;BME280;5356;43.526;26.534;2023-05-03T02:50:07;99652.03;;;10.30;100.00
10618;BME280;5356;43.526;26.534;2023-05-03T02:52:33;99656.56;;;10.36;100.00
10618;BME280;5356;43.526;26.534;2023-05-03T02:54:58;99662.69;;;10.37;100.00
10618;BME280;5356;43.526;26.534;2023-05-03T02:57:24;99653.69;;;10.31;100.00
10618;BME280;5356;43.526;26.534;2023-05-03T02:59:50;99648.94;;;10.33;100.00
10618;BME280;5356;43.526;26.534;2023-05-03T03:02:15;99645.91;;;10.36;100.00
10618;BME280;5356;43.526;26.534;2023-05-03T03:04:41;99645.06;;;10.29;100.00
10618;BME280;5356;43.526;26.534;2023-05-03T03:07:06;99639.31;;;10.25;100.00
10618;BME280;5356;43.526;26.534;2023-05-03T03:09:32;99639.72;;;10.36;100.00
10618;BME280;5356;43.526;26.534;2023-05-03T03:12:00;99635.63;;;10.33;100.00
10618;BME280;5356;43.526;26.534;2023-05-03T03:14:28;99635.63;;;10.33;100.00
10618;BME280;5356;43.526;26.534;2023-05-03T03:16:53;99624.81;;;10.28;100.00
10618;BME280;5356;43.526;26.534;2023-05-03T03:19:19;99623.16;;;10.27;100.00
10618;BME280;5356;43.526;26.534;2023-05-03T03:21:44;99636.06;;;10.30;100.00
10618;BME280;5356;43.526;26.534;2023-05-03T03:24:10;99628.66;;;10.39;100.00
10618;BME280;5356;43.526;26.534;2023-05-03T03:26:35;99632.53;;;10.49;100.00
10618;BME280;5356;43.526;26.534;2023-05-03T03:29:00;99620.88;;;10.50;100.00
10618;BME280;5356;43.526;26.534;2023-05-03T03:31:26;99622.31;;;10.46;100.00
10618;BME280;5356;43.526;26.534;2023-05-03T03:33:51;99626.41;;;10.49;100.00
10618;BME280;5356;43.526;26.534;2023-05-03T03:36:17;99643.84;;;10.45;100.00
10618;BME280;5356;43.526;26.534;2023-05-03T03:38:42;99654.88;;;10.62;100.00
10618;BME280;5356;43.526;26.534;2023-05-03T03:41:10;99668.38;;;10.73;100.00
10618;BME280;5356;43.526;26.534;2023-05-03T03:43:35;99665.84;;;10.98;100.00
10618;BME280;5356;43.526;26.534;2023-05-03T03:46:01;99670.09;;;11.13;100.00
10618;BME280;5356;43.526;26.534;2023-05-03T03:48:26;99678.50;;;11.16;100.00
10618;BME280;5356;43.526;26.534;2023-05-03T03:50:52;99681.19;;;11.10;100.00
10618;BME280;5356;43.526;26.534;2023-05-03T03:53:17;99674.41;;;11.14;100.00
10618;BME280;5356;43.526;26.534;2023-05-03T03:55:43;99679.50;;;11.22;100.00
10618;BME280;5356;43.526;26.534;2023-05-03T03:58:08;99675.97;;;11.28;100.00
10618;BME280;5356;43.526;26.534;2023-05-03T04:00:37;99679.59;;;11.47;100.00
10618;BME280;5356;43.526;26.534;2023-05-03T04:03:03;99675.44;;;11.51;100.00
10618;BME280;5356;43.526;26.534;2023-05-03T04:05:32;99668.97;;;11.72;100.00
10618;BME280;5356;43.526;26.534;2023-05-03T04:07:57;99677.94;;;11.84;100.00
10618;BME280;5356;43.526;26.534;2023-05-03T04:10:23;99665.63;;;11.83;100.00
10618;BME280;5356;43.526;26.534;2023-05-03T04:12:48;99657.16;;;11.93;100.00
10618;BME280;5356;43.526;26.534;2023-05-03T04:15:14;99676.78;;;12.05;100.00
10618;BME280;5356;43.526;26.534;2023-05-03T04:17:40;99668.88;;;12.17;100.00
10618;BME280;5356;43.526;26.534;2023-05-03T04:20:08;99671.97;;;12.14;100.00
10618;BME280;5356;43.526;26.534;2023-05-03T04:22:35;99665.63;;;12.15;100.00
10618;BME280;5356;43.526;26.534;2023-05-03T04:25:02;99673.56;;;12.22;100.00
10618;BME280;5356;43.526;26.534;2023-05-03T04:27:27;99671.88;;;12.27;100.00
10618;BME280;5356;43.526;26.534;2023-05-03T04:29:53;99662.06;;;12.21;100.00
10618;BME280;5356;43.526;26.534;2023-05-03T04:32:19;99654.50;;;12.18;100.00
10618;BME280;5356;43.526;26.534;2023-05-03T04:34:48;99658.03;;;12.12;100.00
10618;BME280;5356;43.526;26.534;2023-05-03T04:37:20;99659.06;;;12.11;100.00
10618;BME280;5356;43.526;26.534;2023-05-03T04:39:46;99653.19;;;12.02;100.00
10618;BME280;5356;43.526;26.534;2023-05-03T04:42:13;99658.47;;;12.09;100.00
10618;BME280;5356;43.526;26.534;2023-05-03T04:44:41;99647.91;;;12.21;100.00
10618;BME280;5356;43.526;26.534;2023-05-03T04:47:07;99648.09;;;12.19;100.00
10618;BME280;5356;43.526;26.534;2023-05-03T04:49:33;99656.22;;;12.31;100.00
10618;BME280;5356;43.526;26.534;2023-05-03T04:51:59;99657.38;;;12.42;100.00
10618;BME280;5356;43.526;26.534;2023-05-03T04:54:24;99668.06;;;12.42;100.00
10618;BME280;5356;43.526;26.534;2023-05-03T04:56:50;99657.53;;;12.47;100.00
10618;BME280;5356;43.526;26.534;2023-05-03T04:59:15;99657.00;;;12.56;100.00
10618;BME280;5356;43.526;26.534;2023-05-03T05:01:41;99661.88;;;12.66;100.00
10618;BME280;5356;43.526;26.534;2023-05-03T05:04:06;99663.34;;;12.80;100.00
10618;BME280;5356;43.526;26.534;2023-05-03T05:06:32;99662.97;;;12.95;100.00
10618;BME280;5356;43.526;26.534;2023-05-03T05:08:57;99667.50;;;12.95;100.00
10618;BME280;5356;43.526;26.534;2023-05-03T05:11:23;99665.88;;;13.12;100.00
10618;BME280;5356;43.526;26.534;2023-05-03T05:13:48;99670.78;;;13.15;100.00
10618;BME280;5356;43.526;26.534;2023-05-03T05:16:13;99662.88;;;13.20;100.00
10618;BME280;5356;43.526;26.534;2023-05-03T05:18:39;99662.88;;;13.20;100.00
10618;BME280;5356;43.526;26.534;2023-05-03T05:21:05;99672.72;;;13.27;100.00
10618;BME280;5356;43.526;26.534;2023-05-03T05:23:30;99664.38;;;13.35;100.00
10618;BME280;5356;43.526;26.534;2023-05-03T05:25:56;99673.28;;;13.47;100.00
10618;BME280;5356;43.526;26.534;2023-05-03T05:28:26;99670.28;;;13.55;100.00
10618;BME280;5356;43.526;26.534;2023-05-03T05:30:52;99676.38;;;13.62;100.00
10618;BME280;5356;43.526;26.534;2023-05-03T05:33:17;99664.75;;;13.68;100.00
10618;BME280;5356;43.526;26.534;2023-05-03T05:35:44;99664.28;;;13.72;100.00
10618;BME280;5356;43.526;26.534;2023-05-03T05:38:10;99663.84;;;13.75;100.00
10618;BME280;5356;43.526;26.534;2023-05-03T05:40:36;99663.66;;;13.88;100.00
10618;BME280;5356;43.526;26.534;2023-05-03T05:43:01;99670.75;;;13.94;100.00
10618;BME280;5356;43.526;26.534;2023-05-03T05:45:27;99667.41;;;13.99;100.00
10618;BME280;5356;43.526;26.534;2023-05-03T05:47:52;99669.28;;;14.10;100.00
10618;BME280;5356;43.526;26.534;2023-05-03T05:50:18;99670.66;;;14.12;100.00
10618;BME280;5356;43.526;26.534;2023-05-03T05:52:43;99673.00;;;14.21;100.00
10618;BME280;5356;43.526;26.534;2023-05-03T05:55:09;99665.00;;;14.32;100.00
10618;BME280;5356;43.526;26.534;2023-05-03T05:57:38;99664.06;;;14.50;100.00
10618;BME280;5356;43.526;26.534;2023-05-03T06:00:05;99672.72;;;14.64;100.00
10618;BME280;5356;43.526;26.534;2023-05-03T06:02:39;99668.63;;;14.73;100.00
10618;BME280;5356;43.526;26.534;2023-05-03T06:05:05;99683.41;;;14.88;99.89
10618;BME280;5356;43.526;26.534;2023-05-03T06:07:30;99676.63;;;14.97;97.97
10618;BME280;5356;43.526;26.534;2023-05-03T06:09:56;99682.56;;;15.11;96.91
10618;BME280;5356;43.526;26.534;2023-05-03T06:12:21;99685.34;;;15.16;94.81
10618;BME280;5356;43.526;26.534;2023-05-03T06:14:47;99679.34;;;15.25;93.00
10618;BME280;5356;43.526;26.534;2023-05-03T06:17:12;99676.00;;;15.18;91.62
10618;BME280;5356;43.526;26.534;2023-05-03T06:19:37;99677.41;;;15.21;91.07
10618;BME280;5356;43.526;26.534;2023-05-03T06:22:04;99671.78;;;15.22;90.58
10618;BME280;5356;43.526;26.534;2023-05-03T06:24:29;99688.59;;;15.30;89.97
10618;BME280;5356;43.526;26.534;2023-05-03T06:26:57;99685.53;;;15.38;90.87
10618;BME280;5356;43.526;26.534;2023-05-03T06:29:23;99681.88;;;15.44;90.95
10618;BME280;5356;43.526;26.534;2023-05-03T06:31:48;99687.00;;;15.45;90.45
10618;BME280;5356;43.526;26.534;2023-05-03T06:34:17;99690.56;;;15.63;92.25
10618;BME280;5356;43.526;26.534;2023-05-03T06:36:44;99692.75;;;15.78;92.46
10618;BME280;5356;43.526;26.534;2023-05-03T06:39:12;99697.38;;;15.82;93.24
10618;BME280;5356;43.526;26.534;2023-05-03T06:41:37;99704.56;;;15.93;92.33
10618;BME280;5356;43.526;26.534;2023-05-03T06:44:03;99715.19;;;16.00;91.19
10618;BME280;5356;43.526;26.534;2023-05-03T06:46:28;99725.84;;;15.95;90.24
10618;BME280;5356;43.526;26.534;2023-05-03T06:48:54;99735.59;;;16.01;90.33
10618;BME280;5356;43.526;26.534;2023-05-03T06:51:25;99755.81;;;16.04;88.37
10618;BME280;5356;43.526;26.534;2023-05-03T06:53:56;99759.31;;;16.04;87.62
10618;BME280;5356;43.526;26.534;2023-05-03T06:56:22;99771.75;;;16.22;87.93
10618;BME280;5356;43.526;26.534;2023-05-03T06:58:48;99775.75;;;16.36;87.13
10618;BME280;5356;43.526;26.534;2023-05-03T07:01:13;99775.34;;;16.45;86.73
10618;BME280;5356;43.526;26.534;2023-05-03T07:03:39;99777.56;;;16.48;86.82
10618;BME280;5356;43.526;26.534;2023-05-03T07:06:04;99781.28;;;16.64;85.77
10618;BME280;5356;43.526;26.534;2023-05-03T07:08:30;99784.38;;;16.72;84.58
10618;BME280;5356;43.526;26.534;2023-05-03T07:10:56;99787.38;;;16.88;84.46
10618;BME280;5356;43.526;26.534;2023-05-03T07:13:21;99791.44;;;17.07;83.95
10618;BME280;5356;43.526;26.534;2023-05-03T07:15:47;99799.72;;;17.05;82.05
10618;BME280;5356;43.526;26.534;2023-05-03T07:18:13;99793.75;;;17.20;82.41
10618;BME280;5356;43.526;26.534;2023-05-03T07:20:38;99808.19;;;17.14;79.49
10618;BME280;5356;43.526;26.534;2023-05-03T07:23:04;99808.00;;;17.21;79.79
10618;BME280;5356;43.526;26.534;2023-05-03T07:25:31;99812.97;;;17.29;78.90
10618;BME280;5356;43.526;26.534;2023-05-03T07:27:57;99805.63;;;17.41;78.63
10618;BME280;5356;43.526;26.534;2023-05-03T07:30:23;99805.78;;;17.35;76.55
10618;BME280;5356;43.526;26.534;2023-05-03T07:32:49;99793.28;;;17.45;75.79
10618;BME280;5356;43.526;26.534;2023-05-03T07:35:15;99801.44;;;17.50;74.86
10618;BME280;5356;43.526;26.534;2023-05-03T07:37:41;99803.19;;;17.62;73.24
10618;BME280;5356;43.526;26.534;2023-05-03T07:40:08;99802.38;;;17.61;72.41
10618;BME280;5356;43.526;26.534;2023-05-03T07:42:34;99797.50;;;17.58;70.06
10618;BME280;5356;43.526;26.534;2023-05-03T07:45:00;99808.31;;;17.63;70.34
10618;BME280;5356;43.526;26.534;2023-05-03T07:47:26;99808.66;;;17.67;69.48
10618;BME280;5356;43.526;26.534;2023-05-03T07:49:52;99814.41;;;17.76;67.74
10618;BME280;5356;43.526;26.534;2023-05-03T07:52:17;99817.81;;;17.88;67.34
10618;BME280;5356;43.526;26.534;2023-05-03T07:54:43;99813.03;;;17.73;63.54
10618;BME280;5356;43.526;26.534;2023-05-03T07:57:13;99807.72;;;17.78;62.60
10618;BME280;5356;43.526;26.534;2023-05-03T07:59:38;99811.09;;;17.90;62.93
10618;BME280;5356;43.526;26.534;2023-05-03T08:02:04;99816.19;;;17.87;62.76
10618;BME280;5356;43.526;26.534;2023-05-03T08:04:30;99817.28;;;17.91;61.70
10618;BME280;5356;43.526;26.534;2023-05-03T08:06:55;99813.03;;;17.95;60.66
10618;BME280;5356;43.526;26.534;2023-05-03T08:09:21;99810.28;;;17.90;58.65
10618;BME280;5356;43.526;26.534;2023-05-03T08:11:46;99814.59;;;17.91;59.05
10618;BME280;5356;43.526;26.534;2023-05-03T08:14:12;99817.28;;;17.91;58.47
10618;BME280;5356;43.526;26.534;2023-05-03T08:16:38;99818.00;;;18.03;58.53
10618;BME280;5356;43.526;26.534;2023-05-03T08:19:04;99819.66;;;18.09;57.81
10618;BME280;5356;43.526;26.534;2023-05-03T08:21:29;99818.03;;;18.08;56.81
10618;BME280;5356;43.526;26.534;2023-05-03T08:23:55;99810.09;;;18.24;56.82
10618;BME280;5356;43.526;26.534;2023-05-03T08:26:21;99815.00;;;18.27;55.88
10618;BME280;5356;43.526;26.534;2023-05-03T08:28:46;99806.91;;;18.27;55.72
10618;BME280;5356;43.526;26.534;2023-05-03T08:31:12;99808.56;;;18.33;55.57
10618;BME280;5356;43.526;26.534;2023-05-03T08:33:38;99805.41;;;18.41;56.08
10618;BME280;5356;43.526;26.534;2023-05-03T08:36:04;99800.38;;;18.50;56.15
10618;BME280;5356;43.526;26.534;2023-05-03T08:38:29;99809.38;;;18.60;55.91
10618;BME280;5356;43.526;26.534;2023-05-03T08:40:57;99810.28;;;18.71;55.26
10618;BME280;5356;43.526;26.534;2023-05-03T08:43:26;99804.72;;;18.83;55.97
10618;BME280;5356;43.526;26.534;2023-05-03T08:45:52;99800.88;;;18.79;55.73
10618;BME280;5356;43.526;26.534;2023-05-03T08:48:18;99804.72;;;18.83;56.59
10618;BME280;5356;43.526;26.534;2023-05-03T08:50:44;99801.03;;;18.99;57.56
10618;BME280;5356;43.526;26.534;2023-05-03T08:53:10;99811.44;;;19.18;57.33
10618;BME280;5356;43.526;26.534;2023-05-03T08:55:36;99794.97;;;19.24;57.43
10618;BME280;5356;43.526;26.534;2023-05-03T08:58:05;99799.81;;;19.17;58.24
10618;BME280;5356;43.526;26.534;2023-05-03T09:00:35;99790.38;;;19.20;58.31
10618;BME280;5356;43.526;26.534;2023-05-03T09:03:00;99796.38;;;19.32;58.40
10618;BME280;5356;43.526;26.534;2023-05-03T09:05:29;99789.38;;;19.41;58.40
10618;BME280;5356;43.526;26.534;2023-05-03T09:08:03;99788.84;;;19.44;57.45
10618;BME280;5356;43.526;26.534;2023-05-03T09:10:30;99786.94;;;19.35;57.26
10618;BME280;5356;43.526;26.534;2023-05-03T09:13:00;99777.50;;;19.37;57.67
10618;BME280;5356;43.526;26.534;2023-05-03T09:15:29;99785.00;;;19.30;57.73
10618;BME280;5356;43.526;26.534;2023-05-03T09:18:16;99784.53;;;19.43;58.04
10618;BME280;5356;43.526;26.534;2023-05-03T09:20:42;99788.34;;;19.42;58.09
10618;BME280;5356;43.526;26.534;2023-05-03T09:23:15;99787.78;;;19.40;58.10
10618;BME280;5356;43.526;26.534;2023-05-03T09:25:49;99782.38;;;19.40;58.71
10618;BME280;5356;43.526;26.534;2023-05-03T09:28:16;99781.31;;;19.46;58.82
10618;BME280;5356;43.526;26.534;2023-05-03T09:30:43;99767.28;;;19.49;57.78
10618;BME280;5356;43.526;26.534;2023-05-03T09:33:09;99782.06;;;19.32;57.07
10618;BME280;5356;43.526;26.534;2023-05-03T09:35:36;99776.38;;;19.33;55.92
10618;BME280;5356;43.526;26.534;2023-05-03T09:38:02;99777.47;;;19.32;56.20
10618;BME280;5356;43.526;26.534;2023-05-03T09:40:28;99767.25;;;19.39;56.22
10618;BME280;5356;43.526;26.534;2023-05-03T09:43:10;99762.66;;;19.40;56.70
10618;BME280;5356;43.526;26.534;2023-05-03T09:45:36;99762.91;;;19.38;56.67
10618;BME280;5356;43.526;26.534;2023-05-03T09:48:04;99755.34;;;19.40;56.95
10618;BME280;5356;43.526;26.534;2023-05-03T09:50:34;99755.91;;;19.47;56.55
10618;BME280;5356;43.526;26.534;2023-05-03T09:53:05;99747.31;;;19.61;56.40
10618;BME280;5356;43.526;26.534;2023-05-03T09:55:38;99736.78;;;19.59;56.58
10618;BME280;5356;43.526;26.534;2023-05-03T09:58:05;99730.25;;;19.55;56.37
10618;BME280;5356;43.526;26.534;2023-05-03T10:00:40;99724.66;;;19.67;56.99
10618;BME280;5356;43.526;26.534;2023-05-03T10:03:13;99714.97;;;19.76;56.06
10618;BME280;5356;43.526;26.534;2023-05-03T10:05:47;99708.19;;;19.84;55.77
10618;BME280;5356;43.526;26.534;2023-05-03T10:08:29;99712.84;;;19.99;55.97
10618;BME280;5356;43.526;26.534;2023-05-03T10:10:57;99716.63;;;20.08;54.31
10618;BME280;5356;43.526;26.534;2023-05-03T10:13:24;99708.50;;;20.08;54.70
10618;BME280;5356;43.526;26.534;2023-05-03T10:15:55;99702.25;;;19.92;52.66
10618;BME280;5356;43.526;26.534;2023-05-03T10:18:22;99700.66;;;19.91;53.23
10618;BME280;5356;43.526;26.534;2023-05-03T10:20:55;99693.31;;;19.86;53.53
10618;BME280;5356;43.526;26.534;2023-05-03T10:23:22;99709.03;;;19.94;54.22
10618;BME280;5356;43.526;26.534;2023-05-03T10:28:38;99703.38;;;20.22;54.52
10618;BME280;5356;43.526;26.534;2023-05-03T10:31:03;99701.75;;;20.31;53.80
10618;BME280;5356;43.526;26.534;2023-05-03T10:33:30;99698.78;;;20.22;52.93
10618;BME280;5356;43.526;26.534;2023-05-03T10:35:57;99700.41;;;20.13;51.64
10618;BME280;5356;43.526;26.534;2023-05-03T10:38:27;99691.72;;;20.31;51.95
10618;BME280;5356;43.526;26.534;2023-05-03T10:40:54;99679.00;;;20.37;50.70
10618;BME280;5356;43.526;26.534;2023-05-03T10:46:05;99679.00;;;20.73;50.73
10618;BME280;5356;43.526;26.534;2023-05-03T10:48:32;99684.66;;;20.87;51.13
10618;BME280;5356;43.526;26.534;2023-05-03T10:53:53;99688.97;;;20.93;50.45
10618;BME280;5356;43.526;26.534;2023-05-03T10:56:18;99698.94;;;21.02;50.58
10618;BME280;5356;43.526;26.534;2023-05-03T10:58:45;99685.94;;;20.99;50.10
10618;BME280;5356;43.526;26.534;2023-05-03T11:01:12;99688.41;;;20.85;50.24
10618;BME280;5356;43.526;26.534;2023-05-03T11:04:24;99682.50;;;20.78;49.71
10618;BME280;5356;43.526;26.534;2023-05-03T11:06:34;99684.16;;;20.64;48.95
10618;BME280;5356;43.526;26.534;2023-05-03T11:09:05;99678.19;;;20.57;48.98
10618;BME280;5356;43.526;26.534;2023-05-03T11:11:31;99671.16;;;20.46;49.67
10618;BME280;5356;43.526;26.534;2023-05-03T11:13:57;99687.41;;;20.56;50.06
10618;BME280;5356;43.526;26.534;2023-05-03T11:16:23;99683.63;;;20.62;50.86
10618;BME280;5356;43.526;26.534;2023-05-03T11:18:52;99694.94;;;20.69;51.32
10618;BME280;5356;43.526;26.534;2023-05-03T11:21:20;99682.22;;;20.75;51.39
10618;BME280;5356;43.526;26.534;2023-05-03T11:23:47;99687.38;;;20.81;51.24
10618;BME280;5356;43.526;26.534;2023-05-03T11:26:15;99678.16;;;20.77;51.20
10618;BME280;5356;43.526;26.534;2023-05-03T11:28:43;99671.66;;;20.78;51.29
10618;BME280;5356;43.526;26.534;2023-05-03T11:31:12;99678.97;;;20.78;51.13
10618;BME280;5356;43.526;26.534;2023-05-03T11:33:38;99670.03;;;20.82;51.06
10618;BME280;5356;43.526;26.534;2023-05-03T11:36:05;99666.41;;;21.07;50.10
10618;BME280;5356;43.526;26.534;2023-05-03T11:38:33;99641.56;;;21.50;49.90
10618;BME280;5356;43.526;26.534;2023-05-03T11:41:00;99648.03;;;21.54;49.14
10618;BME280;5356;43.526;26.534;2023-05-03T11:43:26;99649.09;;;21.63;49.77
10618;BME280;5356;43.526;26.534;2023-05-03T11:45:55;99633.75;;;21.83;47.59
10618;BME280;5356;43.526;26.534;2023-05-03T11:48:22;99645.53;;;22.02;47.42
10618;BME280;5356;43.526;26.534;2023-05-03T11:50:49;99640.47;;;22.25;47.19
10618;BME280;5356;43.526;26.534;2023-05-03T11:53:22;99634.25;;;22.53;46.50
10618;BME280;5356;43.526;26.534;2023-05-03T11:55:50;99644.13;;;22.68;45.89
10618;BME280;5356;43.526;26.534;2023-05-03T11:58:22;99635.34;;;22.76;45.08
10618;BME280;5356;43.526;26.534;2023-05-03T12:00:50;99642.72;;;22.95;44.24
10618;BME280;5356;43.526;26.534;2023-05-03T12:03:19;99643.00;;;22.69;43.50
10618;BME280;5356;43.526;26.534;2023-05-03T12:05:46;99646.66;;;22.59;43.73
10618;BME280;5356;43.526;26.534;2023-05-03T12:08:12;99645.41;;;22.47;43.42
10618;BME280;5356;43.526;26.534;2023-05-03T12:10:39;99653.63;;;22.41;43.47
10618;BME280;5356;43.526;26.534;2023-05-03T12:13:05;99644.72;;;22.36;43.42
10618;BME280;5356;43.526;26.534;2023-05-03T12:15:32;99639.41;;;22.26;42.60
10618;BME280;5356;43.526;26.534;2023-05-03T12:17:59;99639.75;;;22.14;42.42
10618;BME280;5356;43.526;26.534;2023-05-03T12:20:26;99642.25;;;22.05;41.55
10618;BME280;5356;43.526;26.534;2023-05-03T12:23:02;99643.47;;;21.89;40.86
10618;BME280;5356;43.526;26.534;2023-05-03T12:25:29;99649.50;;;21.81;40.53
10618;BME280;5356;43.526;26.534;2023-05-03T12:27:57;99653.03;;;21.81;40.44
10618;BME280;5356;43.526;26.534;2023-05-03T12:30:23;99655.16;;;21.84;40.77
10618;BME280;5356;43.526;26.534;2023-05-03T12:32:49;99655.91;;;21.95;40.32
10618;BME280;5356;43.526;26.534;2023-05-03T12:35:20;99641.41;;;22.10;39.85
10618;BME280;5356;43.526;26.534;2023-05-03T12:37:47;99634.44;;;21.98;38.97
10618;BME280;5356;43.526;26.534;2023-05-03T12:40:13;99627.94;;;22.00;38.84
10618;BME280;5356;43.526;26.534;2023-05-03T12:42:39;99632.81;;;21.97;39.39
10618;BME280;5356;43.526;26.534;2023-05-03T12:45:06;99627.78;;;21.86;39.07
10618;BME280;5356;43.526;26.534;2023-05-03T12:47:32;99618.03;;;21.80;39.06
10618;BME280;5356;43.526;26.534;2023-05-03T12:49:58;99617.03;;;21.70;38.93
10618;BME280;5356;43.526;26.534;2023-05-03T12:52:23;99609.78;;;21.61;38.50
10618;BME280;5356;43.526;26.534;2023-05-03T12:54:49;99615.09;;;21.71;38.95
10618;BME280;5356;43.526;26.534;2023-05-03T12:57:15;99613.50;;;21.70;39.17
10618;BME280;5356;43.526;26.534;2023-05-03T12:59:41;99622.78;;;21.64;39.45
10618;BME280;5356;43.526;26.534;2023-05-03T13:02:10;99616.66;;;21.82;38.70
10618;BME280;5356;43.526;26.534;2023-05-03T13:04:36;99619.91;;;22.18;38.67
10618;BME280;5356;43.526;26.534;2023-05-03T13:07:02;99620.19;;;22.17;36.99
10618;BME280;5356;43.526;26.534;2023-05-03T13:09:27;99620.75;;;22.14;35.90
10618;BME280;5356;43.526;26.534;2023-05-03T13:11:53;99615.47;;;21.93;35.37
10618;BME280;5356;43.526;26.534;2023-05-03T13:14:20;99605.50;;;21.89;35.53
10618;BME280;5356;43.526;26.534;2023-05-03T13:16:46;99618.78;;;21.85;35.24
10618;BME280;5356;43.526;26.534;2023-05-03T13:19:13;99607.75;;;21.77;35.49